Time;durP1;ratioP1;P1;durP2;ratioP2;P2;SDS_P1;SDS_P2;PMS_P1;PMS_P2;Temp;Humidity;BMP_temperature;BMP_pressure;BME280_temperature;BME280_humidity;BME280_pressure;Samples;Min_cycle;Max_cycle;Signal;HPM_P1;HPM_P2
2024/02/08 00:02:19;;;;;;;;;;;;;;;20.15;36.45;94528.72;10507636;28;2063;-70
2024/02/08 00:07:19;;;;;;;;;;;;;;;20.11;36.91;94531.16;10508443;28;2160;-71
2024/02/08 00:12:19;;;;;;;;;;;;;;;20.12;36.30;94526.66;10507422;28;1996;-70
2024/02/08 00:17:20;;;;;;;;;;;;;;;20.09;36.71;94522.03;10507333;28;2193;-70
2024/02/08 00:22:20;;;;;;;;;;;;;;;20.07;36.76;94534.69;10508577;28;2106;-70
2024/02/08 00:27:20;;;;;;;;;;;;;;;20.05;36.59;94524.47;10493207;28;2641;-70
2024/02/08 00:32:21;;;;;;;;;;;;;;;20.03;36.31;94523.22;10506261;28;2040;-69
2024/02/08 00:37:21;;;;;;;;;;;;;;;19.99;36.18;94509.88;10505455;28;2226;-70
2024/02/08 00:42:21;;;;;;;;;;;;;;;19.97;36.31;94525.16;10503087;28;2039;-70
2024/02/08 00:47:24;;;;;;;;;;;;;;;19.95;36.09;94521.28;10487507;28;2118;-70
2024/02/08 00:52:25;;;;;;;;;;;;;;;19.95;35.91;94516.81;10507016;28;2048;-70
2024/02/08 00:57:28;;;;;;;;;;;;;;;19.94;35.93;94512.63;10504276;28;2167;-70
2024/02/08 01:02:28;;;;;;;;;;;;;;;19.92;35.78;94508.75;10504571;28;2135;-71
2024/02/08 01:07:32;;;;;;;;;;;;;;;19.89;36.30;94517.22;10519888;28;2204;-70
2024/02/08 01:12:33;;;;;;;;;;;;;;;19.87;36.35;94519.38;10517195;27;2030;-70
2024/02/08 01:17:33;;;;;;;;;;;;;;;19.84;36.44;94515.50;10505665;28;2245;-70
2024/02/08 01:22:34;;;;;;;;;;;;;;;19.83;36.68;94508.69;10502486;28;2251;-70
2024/02/08 01:27:34;;;;;;;;;;;;;;;19.82;36.18;94501.09;10521249;28;2021;-69
2024/02/08 01:32:34;;;;;;;;;;;;;;;19.81;35.70;94504.78;10501845;28;2096;-71
2024/02/08 01:37:38;;;;;;;;;;;;;;;19.78;36.19;94503.53;10484286;28;2084;-69
2024/02/08 01:42:38;;;;;;;;;;;;;;;19.77;36.34;94493.31;10518548;28;2055;-69
2024/02/08 01:47:38;;;;;;;;;;;;;;;19.75;35.91;94477.06;10502794;28;2440;-70
2024/02/08 01:52:42;;;;;;;;;;;;;;;19.72;36.00;94475.03;10486895;28;2080;-70
2024/02/08 01:57:44;;;;;;;;;;;;;;;19.71;36.05;94476.09;10516339;28;2107;-69
2024/02/08 02:02:44;;;;;;;;;;;;;;;19.69;36.15;94462.47;10499331;28;2303;-70
2024/02/08 02:07:48;;;;;;;;;;;;;;;19.69;35.81;94470.34;10499606;28;2352;-70
2024/02/08 02:12:48;;;;;;;;;;;;;;;19.67;35.90;94469.88;10485775;28;2208;-70
2024/02/08 02:17:49;;;;;;;;;;;;;;;19.66;35.67;94478.84;10516082;28;2138;-70
2024/02/08 02:22:51;;;;;;;;;;;;;;;19.64;35.86;94471.25;10503255;28;1984;-70
2024/02/08 02:27:54;;;;;;;;;;;;;;;19.62;35.86;94464.75;10501741;28;2112;-70
2024/02/08 02:32:55;;;;;;;;;;;;;;;19.60;36.28;94461.66;10504491;28;1959;-71
2024/02/08 02:38:01;;;;;;;;;;;;;;;19.58;36.04;94469.81;10519132;28;2083;-70
2024/02/08 02:43:09;;;;;;;;;;;;;;;19.58;36.07;94458.53;10508820;28;2106;-70
2024/02/08 02:48:09;;;;;;;;;;;;;;;19.56;36.16;94466.69;10522718;27;2311;-71
2024/02/08 02:53:10;;;;;;;;;;;;;;;19.54;36.15;94458.34;10491885;28;2195;-71
2024/02/08 02:58:12;;;;;;;;;;;;;;;19.53;36.28;94456.78;10490759;28;2036;-70
2024/02/08 03:03:12;;;;;;;;;;;;;;;19.52;36.35;94463.13;10491453;28;2103;-70
2024/02/08 03:08:12;;;;;;;;;;;;;;;19.49;36.04;94464.47;10508854;28;2071;-70
2024/02/08 03:13:12;;;;;;;;;;;;;;;19.49;36.08;94461.84;10492644;28;2077;-71
2024/02/08 03:18:14;;;;;;;;;;;;;;;19.47;35.54;94464.00;10521251;27;2098;-70
2024/02/08 03:23:14;;;;;;;;;;;;;;;19.45;36.13;94460.88;10509633;28;1988;-70
2024/02/08 03:28:15;;;;;;;;;;;;;;;19.45;35.74;94460.88;10507936;28;2058;-70
2024/02/08 03:33:15;;;;;;;;;;;;;;;19.44;35.91;94463.81;10508978;28;2012;-70
2024/02/08 03:38:15;;;;;;;;;;;;;;;19.42;35.96;94469.38;10519631;28;2196;-70
2024/02/08 03:43:16;;;;;;;;;;;;;;;19.41;36.22;94465.19;10487335;28;2008;-70
2024/02/08 03:48:16;;;;;;;;;;;;;;;19.41;35.97;94453.91;10507764;28;1973;-70
2024/02/08 03:53:20;;;;;;;;;;;;;;;19.40;35.52;94458.38;10488181;28;2175;-70
2024/02/08 03:58:23;;;;;;;;;;;;;;;19.37;36.05;94453.72;10488587;28;2110;-70
2024/02/08 04:03:43;;;;;;;;;;;;;;;19.36;36.24;94457.44;10505994;28;2216;-70
2024/02/08 04:56:35;;;;;;;;;;;;;;;19.26;35.72;94457.63;10505464;28;1941;-71
2024/02/08 05:01:38;;;;;;;;;;;;;;;19.24;35.88;94449.25;10504858;28;2055;-70
2024/02/08 05:06:38;;;;;;;;;;;;;;;19.24;35.88;94451.88;10507019;28;2198;-70
2024/02/08 05:11:39;;;;;;;;;;;;;;;19.26;36.25;94451.59;10504268;28;2194;-70
2024/02/08 05:16:39;;;;;;;;;;;;;;;19.30;36.06;94447.28;10509629;28;2082;-70
2024/02/08 05:21:43;;;;;;;;;;;;;;;19.37;36.26;94450.34;10519161;28;2174;-70
2024/02/08 05:26:43;;;;;;;;;;;;;;;19.45;36.10;94447.00;10502652;28;2469;-69
2024/02/08 05:31:46;;;;;;;;;;;;;;;19.54;35.83;94457.59;10502557;28;2107;-70
2024/02/08 05:36:48;;;;;;;;;;;;;;;19.61;35.69;94440.31;10504268;28;2234;-71
2024/02/08 05:41:53;;;;;;;;;;;;;;;19.69;35.43;94438.81;10503253;28;2040;-70
2024/02/08 05:46:54;;;;;;;;;;;;;;;19.73;35.28;94439.75;10503385;28;2040;-70
2024/02/08 05:51:56;;;;;;;;;;;;;;;19.77;34.95;94431.00;10503870;28;2287;-69
2024/02/08 05:57:03;;;;;;;;;;;;;;;19.84;34.67;94441.09;10504110;28;2073;-69
2024/02/08 06:02:13;;;;;;;;;;;;;;;19.86;35.05;94439.72;10486007;28;2252;-70
2024/02/08 06:07:14;;;;;;;;;;;;;;;19.92;35.12;94443.00;10503968;28;2477;-70
2024/02/08 06:12:24;;;;;;;;;;;;;;;19.95;34.79;94429.22;10504238;28;2186;-70
2024/02/08 06:17:31;;;;;;;;;;;;;;;20.00;34.51;94442.25;10513368;28;2051;-69
2024/02/08 06:22:39;;;;;;;;;;;;;;;20.06;34.31;94443.69;10511543;28;2055;-69
2024/02/08 06:27:41;;;;;;;;;;;;;;;20.08;34.19;94428.38;10492602;28;2065;-69
2024/02/08 06:32:44;;;;;;;;;;;;;;;20.12;34.58;94426.69;10492045;28;2028;-69
2024/02/08 06:37:45;;;;;;;;;;;;;;;20.15;33.76;94423.47;10522436;27;2097;-69
2024/02/08 06:43:25;;;;;;;;;;;;;;;20.20;33.48;94420.72;10473517;28;2309;-69
2024/02/08 07:40:58;;;;;;;;;;;;;;;20.76;33.40;94428.69;10504003;28;2513;-78
2024/02/08 07:46:04;;;;;;;;;;;;;;;20.92;32.64;94424.56;10509536;28;2036;-78
2024/02/08 07:51:04;;;;;;;;;;;;;;;21.04;32.95;94414.22;10504157;28;2091;-74
2024/02/08 08:01:32;;;;;;;;;;;;;;;21.31;32.29;94421.06;10486591;28;2122;-73
2024/02/08 08:06:41;;;;;;;;;;;;;;;21.42;32.16;94424.16;10513843;28;2252;-71
2024/02/08 08:11:45;;;;;;;;;;;;;;;21.43;32.12;94417.81;10498470;28;2080;-73
2024/02/08 08:17:08;;;;;;;;;;;;;;;21.33;32.58;94408.34;10498021;28;2226;-74
2024/02/08 08:22:18;;;;;;;;;;;;;;;21.30;32.74;94418.75;10500554;28;2523;-74
2024/02/08 08:27:32;;;;;;;;;;;;;;;21.19;32.95;94415.63;10500256;28;2336;-74
2024/02/08 08:37:44;;;;;;;;;;;;;;;21.13;33.28;94424.00;10502012;28;2039;-74
2024/02/08 08:42:49;;;;;;;;;;;;;;;21.06;33.27;94421.84;10501270;28;2098;-73
2024/02/08 08:48:00;;;;;;;;;;;;;;;21.05;32.70;94421.06;10483896;28;2091;-73
2024/02/08 08:53:16;;;;;;;;;;;;;;;21.02;33.65;94410.31;10514652;28;2059;-74
2024/02/08 08:58:16;;;;;;;;;;;;;;;20.98;33.20;94407.50;10513238;28;1942;-74
2024/02/08 09:03:26;;;;;;;;;;;;;;;20.97;33.50;94408.63;10503105;28;2076;-74
2024/02/08 09:08:42;;;;;;;;;;;;;;;20.94;33.27;94413.69;10501675;28;2318;-73
2024/02/08 09:13:43;;;;;;;;;;;;;;;20.94;33.02;94411.84;10502872;28;2078;-74
2024/02/08 09:24:17;;;;;;;;;;;;;;;20.97;32.92;94416.50;10455261;28;2083;-73
2024/02/08 09:29:23;;;;;;;;;;;;;;;20.99;33.14;94406.44;10500299;28;1983;-73
2024/02/08 09:34:40;;;;;;;;;;;;;;;20.98;33.18;94412.00;10500167;28;2134;-73
2024/02/08 09:45:04;;;;;;;;;;;;;;;20.99;32.77;94424.09;10495907;28;2111;-74
2024/02/08 09:50:08;;;;;;;;;;;;;;;20.98;33.50;94422.53;10510579;28;2063;-73
2024/02/08 09:55:08;;;;;;;;;;;;;;;20.99;33.37;94418.84;10495106;28;2136;-75
2024/02/08 10:00:34;;;;;;;;;;;;;;;20.99;33.46;94395.91;10522304;27;2166;-74
2024/02/08 10:05:50;;;;;;;;;;;;;;;20.97;32.97;94389.38;10523855;27;2099;-73
2024/02/08 10:16:12;;;;;;;;;;;;;;;21.01;32.83;94380.56;10512616;28;2292;-72
2024/02/08 10:21:13;;;;;;;;;;;;;;;21.03;32.93;94380.28;10519181;28;2110;-72
2024/02/08 10:26:26;;;;;;;;;;;;;;;21.04;33.18;94393.13;10510944;27;2067;-74
2024/02/08 10:31:28;;;;;;;;;;;;;;;21.05;33.01;94371.00;10512807;28;2097;-73
2024/02/08 10:36:35;;;;;;;;;;;;;;;21.04;33.56;94358.13;10526536;27;2187;-71
2024/02/08 10:41:37;;;;;;;;;;;;;;;21.02;33.19;94355.00;10492224;28;2111;-74
2024/02/08 10:46:42;;;;;;;;;;;;;;;21.02;33.79;94339.97;10510382;28;2047;-73
2024/02/08 10:51:45;;;;;;;;;;;;;;;21.06;33.62;94340.91;10525518;27;2207;-74
2024/02/08 10:56:48;;;;;;;;;;;;;;;21.06;33.12;94335.63;10524316;27;1986;-71
2024/02/08 11:07:06;;;;;;;;;;;;;;;21.10;32.67;94333.19;10507240;28;1968;-73
2024/02/08 11:12:10;;;;;;;;;;;;;;;21.11;32.96;94310.22;10503868;28;2315;-73
2024/02/08 11:17:20;;;;;;;;;;;;;;;21.12;32.54;94299.41;10501161;28;2111;-73
2024/02/08 11:22:34;;;;;;;;;;;;;;;21.12;32.90;94295.97;10510289;28;1972;-73
2024/02/08 11:27:34;;;;;;;;;;;;;;;21.15;32.64;94297.97;10517502;28;2697;-72
2024/02/08 11:32:35;;;;;;;;;;;;;;;21.12;33.21;94290.72;10501040;28;2079;-73
2024/02/08 11:37:37;;;;;;;;;;;;;;;21.08;33.02;94287.16;10504884;28;2087;-73
2024/02/08 11:42:38;;;;;;;;;;;;;;;21.08;33.47;94283.41;10504199;28;2106;-72
2024/02/08 11:47:41;;;;;;;;;;;;;;;21.12;33.15;94280.94;10503402;28;2067;-74
2024/02/08 11:52:42;;;;;;;;;;;;;;;21.14;33.43;94270.09;10505158;28;2182;-70
2024/02/08 11:57:43;;;;;;;;;;;;;;;21.15;33.46;94282.16;10502904;28;2075;-70
2024/02/08 12:02:47;;;;;;;;;;;;;;;21.19;33.01;94269.91;10484248;28;2055;-71
2024/02/08 12:07:48;;;;;;;;;;;;;;;21.24;33.01;94261.84;10501915;28;2433;-70
2024/02/08 12:12:53;;;;;;;;;;;;;;;21.23;33.10;94261.06;10502612;28;2110;-70
2024/02/08 12:18:05;;;;;;;;;;;;;;;21.27;32.90;94258.59;10515792;28;2070;-68
2024/02/08 12:23:05;;;;;;;;;;;;;;;21.21;32.86;94246.66;10469121;28;2016;-70
2024/02/08 12:28:08;;;;;;;;;;;;;;;21.25;32.98;94250.22;10500094;28;2103;-70
2024/02/08 12:33:09;;;;;;;;;;;;;;;21.29;33.61;94241.38;10483842;28;2144;-71
2024/02/08 12:38:11;;;;;;;;;;;;;;;21.29;33.21;94236.09;10514405;28;2121;-72
2024/02/08 12:43:13;;;;;;;;;;;;;;;21.30;33.41;94236.88;10500804;28;2080;-73
2024/02/08 12:48:15;;;;;;;;;;;;;;;21.29;33.45;94219.53;10496922;28;2093;-71
2024/02/08 12:53:18;;;;;;;;;;;;;;;21.29;33.38;94228.19;10501647;28;2020;-72
2024/02/08 12:58:19;;;;;;;;;;;;;;;21.28;32.94;94229.31;10480003;28;2031;-72
2024/02/08 13:03:24;;;;;;;;;;;;;;;21.28;33.31;94225.88;10483262;28;3092;-71
2024/02/08 13:08:25;;;;;;;;;;;;;;;21.32;32.78;94211.00;10501044;28;2166;-71
2024/02/08 13:13:26;;;;;;;;;;;;;;;21.33;33.40;94220.47;10502486;28;1991;-71
2024/02/08 13:18:32;;;;;;;;;;;;;;;21.30;31.97;94211.31;10500127;28;2040;-71
2024/02/08 13:23:34;;;;;;;;;;;;;;;21.31;32.08;94204.19;10505095;28;2031;-71
2024/02/08 13:28:35;;;;;;;;;;;;;;;21.28;33.99;94202.16;10496398;28;2114;-72
2024/02/08 13:33:38;;;;;;;;;;;;;;;21.28;33.13;94202.94;10501128;28;2071;-73
2024/02/08 13:38:38;;;;;;;;;;;;;;;21.17;34.02;94182.50;10499608;28;2071;-73
2024/02/08 13:43:45;;;;;;;;;;;;;;;21.14;33.80;94193.69;10500369;28;2011;-73
2024/02/08 13:48:46;;;;;;;;;;;;;;;21.10;34.61;94164.56;10500029;28;2319;-73
2024/02/08 13:53:46;;;;;;;;;;;;;;;21.00;34.87;94172.75;10500664;28;2151;-73
2024/02/08 13:58:49;;;;;;;;;;;;;;;21.01;34.82;94180.34;10511017;28;2244;-73
2024/02/08 14:03:50;;;;;;;;;;;;;;;20.96;35.42;94180.50;10499502;28;2177;-72
2024/02/08 14:08:56;;;;;;;;;;;;;;;20.92;34.75;94170.91;10479099;28;2044;-74
2024/02/08 14:13:57;;;;;;;;;;;;;;;20.85;35.21;94181.94;10497505;28;2095;-74
2024/02/08 14:18:59;;;;;;;;;;;;;;;20.81;35.11;94180.22;10501043;28;2113;-74
2024/02/08 14:24:00;;;;;;;;;;;;;;;20.72;35.57;94167.06;10481289;28;2102;-74
2024/02/08 14:29:05;;;;;;;;;;;;;;;20.65;35.90;94172.03;10498862;28;2743;-73
2024/02/08 14:34:07;;;;;;;;;;;;;;;20.62;35.55;94162.13;10503668;28;2195;-74
2024/02/08 14:39:26;;;;;;;;;;;;;;;20.58;36.28;94149.91;10509184;28;2083;-73
2024/02/08 14:44:40;;;;;;;;;;;;;;;20.58;36.15;94161.22;10507060;28;2059;-74
2024/02/08 14:50:28;;;;;;;;;;;;;;;20.61;35.72;94171.09;10520998;27;2099;-74
2024/02/08 14:55:10;;;;;;;;;;;;;;;20.73;34.14;94158.06;10508060;28;2549;-73
2024/02/08 15:05:48;;;;;;;;;;;;;;;20.77;33.91;94161.63;10508261;28;2090;-74
2024/02/08 15:10:48;;;;;;;;;;;;;;;20.80;33.67;94165.50;10506842;28;1909;-74
2024/02/08 15:15:50;;;;;;;;;;;;;;;20.81;33.57;94151.25;10506003;28;2428;-73
2024/02/08 15:20:55;;;;;;;;;;;;;;;20.84;33.95;94146.13;10510447;28;2059;-74
2024/02/08 15:25:59;;;;;;;;;;;;;;;20.89;33.71;94126.78;10486537;28;2065;-74
2024/02/08 15:31:45;;;;;;;;;;;;;;;20.92;34.13;94108.47;10504521;28;2079;-73
2024/02/08 15:36:46;;;;;;;;;;;;;;;20.94;33.40;94114.19;10491490;28;2059;-75
2024/02/08 15:41:55;;;;;;;;;;;;;;;20.95;33.24;94099.94;10512895;27;2041;-74
2024/02/08 15:46:56;;;;;;;;;;;;;;;20.98;33.35;94095.91;10515311;28;2040;-73
2024/02/08 15:51:57;;;;;;;;;;;;;;;20.96;33.40;94074.38;10504659;28;2133;-73
2024/02/08 15:56:57;;;;;;;;;;;;;;;20.99;33.30;94068.47;10503181;28;2185;-72
2024/02/08 16:01:58;;;;;;;;;;;;;;;21.01;33.98;94061.81;10502826;28;2110;-73
2024/02/08 16:07:06;;;;;;;;;;;;;;;21.00;33.62;94056.84;10503188;28;2158;-73
2024/02/08 16:12:36;;;;;;;;;;;;;;;21.03;33.75;94069.41;10502113;28;2079;-73
2024/02/08 16:17:36;;;;;;;;;;;;;;;21.02;33.04;94066.00;10502685;28;2166;-73
2024/02/08 16:22:55;;;;;;;;;;;;;;;21.04;32.99;94063.06;10520767;28;2062;-74
2024/02/08 16:28:02;;;;;;;;;;;;;;;21.03;33.01;94078.09;10502405;28;2242;-74
2024/02/08 16:33:08;;;;;;;;;;;;;;;21.01;33.04;94090.78;10485279;28;2020;-72
2024/02/08 16:38:09;;;;;;;;;;;;;;;21.05;33.30;94101.50;10486125;28;2118;-73
2024/02/08 16:43:19;;;;;;;;;;;;;;;21.01;33.66;94093.41;10503037;28;2532;-74
2024/02/08 16:48:37;;;;;;;;;;;;;;;21.04;33.58;94087.53;10501580;28;2214;-73
2024/02/08 16:53:39;;;;;;;;;;;;;;;21.03;33.51;94088.63;10485697;28;2099;-74
2024/02/08 16:58:55;;;;;;;;;;;;;;;21.03;33.56;94099.19;10501410;28;2207;-73
2024/02/08 17:04:00;;;;;;;;;;;;;;;21.08;33.06;94085.06;10497047;28;2135;-73
2024/02/08 17:14:32;;;;;;;;;;;;;;;21.08;33.72;94102.72;10482587;28;2111;-74
2024/02/08 17:29:45;;;;;;;;;;;;;;;21.09;33.58;94081.31;10512512;28;2121;-74
2024/02/08 17:34:46;;;;;;;;;;;;;;;21.05;33.92;94083.81;10501507;28;2126;-74
2024/02/08 17:39:48;;;;;;;;;;;;;;;21.07;33.36;94062.44;10515415;27;2224;-72
2024/02/08 17:44:54;;;;;;;;;;;;;;;21.12;33.40;94050.94;10503366;28;2091;-73
2024/02/08 17:49:54;;;;;;;;;;;;;;;21.15;33.76;94058.19;10502179;28;2114;-72
2024/02/08 17:54:59;;;;;;;;;;;;;;;21.22;34.22;94074.31;10516894;28;2030;-68
2024/02/08 18:00:00;;;;;;;;;;;;;;;21.29;34.05;94064.03;10501892;28;2225;-75
2024/02/08 18:05:08;;;;;;;;;;;;;;;21.35;34.46;94052.22;10503913;28;2219;-74
2024/02/08 18:10:16;;;;;;;;;;;;;;;21.41;34.00;94041.16;10525484;28;2291;-79
2024/02/08 18:15:26;;;;;;;;;;;;;;;21.54;33.00;94032.25;10518797;28;1964;-67
2024/02/08 18:20:29;;;;;;;;;;;;;;;21.59;33.56;94039.22;10512791;28;2096;-74
2024/02/08 18:25:29;;;;;;;;;;;;;;;21.61;34.31;94029.13;10524039;27;2485;-71
2024/02/08 18:30:30;;;;;;;;;;;;;;;21.68;33.32;94032.00;10489352;28;2393;-68
2024/02/08 18:35:32;;;;;;;;;;;;;;;21.72;33.30;94014.47;10521845;27;2197;-65
2024/02/08 18:40:35;;;;;;;;;;;;;;;21.71;32.57;94013.69;10509006;28;2235;-65
2024/02/08 18:45:40;;;;;;;;;;;;;;;21.69;32.79;94015.09;10514146;28;2161;-63
2024/02/08 18:50:42;;;;;;;;;;;;;;;21.77;33.83;94011.63;10522711;28;2147;-67
2024/02/08 18:55:50;;;;;;;;;;;;;;;21.80;32.92;94010.97;10508869;28;2370;-68
2024/02/08 19:00:54;;;;;;;;;;;;;;;21.79;33.24;94006.78;10510215;28;2049;-67
2024/02/08 19:05:54;;;;;;;;;;;;;;;21.84;33.13;94001.38;10524754;27;2043;-67
2024/02/08 19:10:57;;;;;;;;;;;;;;;21.88;33.32;93986.44;10510583;28;2074;-67
2024/02/08 19:16:00;;;;;;;;;;;;;;;21.96;33.57;93988.22;10505887;28;2205;-65
2024/02/08 19:21:01;;;;;;;;;;;;;;;21.95;33.41;93989.31;10505034;28;2156;-66
2024/02/08 19:26:08;;;;;;;;;;;;;;;21.90;33.33;93978.97;10523151;28;2034;-63
2024/02/08 19:31:09;;;;;;;;;;;;;;;21.94;34.27;93974.59;10510668;28;2075;-67
2024/02/08 19:36:09;;;;;;;;;;;;;;;21.92;33.67;93960.16;10529542;28;1882;-71
2024/02/08 19:41:09;;;;;;;;;;;;;;;21.97;33.42;93952.06;10531711;28;1975;-63
2024/02/08 19:46:11;;;;;;;;;;;;;;;21.88;33.58;93950.25;10545460;28;2883;-70
2024/02/08 19:51:11;;;;;;;;;;;;;;;22.08;34.71;93937.34;10528163;28;1731;-81
2024/02/08 19:56:11;;;;;;;;;;;;;;;22.07;35.90;93936.56;10515163;28;1804;-80
2024/02/08 20:01:16;;;;;;;;;;;;;;;22.07;36.68;93928.66;10509098;28;1905;-77
2024/02/08 20:06:17;;;;;;;;;;;;;;;22.09;35.91;93929.09;10532527;28;1721;-84
2024/02/08 20:11:19;;;;;;;;;;;;;;;22.07;34.78;93920.75;10538422;28;1514;-80
2024/02/08 20:16:19;;;;;;;;;;;;;;;22.10;34.60;93919.31;10534585;28;2242;-76
2024/02/08 20:21:20;;;;;;;;;;;;;;;22.06;35.11;93910.53;10533373;28;2022;-74
2024/02/08 20:26:23;;;;;;;;;;;;;;;22.08;34.98;93908.31;10511098;28;2306;-74
2024/02/08 20:31:26;;;;;;;;;;;;;;;22.13;34.51;93902.84;10530172;28;1961;-74
2024/02/08 20:36:26;;;;;;;;;;;;;;;22.20;34.60;93905.72;10528184;28;1815;-71
2024/02/08 20:41:27;;;;;;;;;;;;;;;22.19;34.82;93904.97;10532812;28;1918;-75
2024/02/08 20:46:30;;;;;;;;;;;;;;;22.16;34.85;93900.31;10531539;28;1573;-75
2024/02/08 20:51:33;;;;;;;;;;;;;;;22.16;34.53;93894.25;10528664;28;1911;-74
2024/02/08 20:56:40;;;;;;;;;;;;;;;22.15;34.88;93890.09;10532433;28;1888;-78
2024/02/08 21:01:41;;;;;;;;;;;;;;;22.13;34.68;93877.25;10512496;28;1905;-77
2024/02/08 21:06:42;;;;;;;;;;;;;;;22.16;34.40;93881.84;10532535;28;1515;-77
2024/02/08 21:11:42;;;;;;;;;;;;;;;22.16;34.76;93868.66;10528138;28;2311;-78
2024/02/08 21:16:43;;;;;;;;;;;;;;;22.17;34.91;93866.78;10511815;28;2052;-77
2024/02/08 21:21:43;;;;;;;;;;;;;;;22.19;34.91;93875.94;10508152;28;2155;-75
2024/02/08 21:26:53;;;;;;;;;;;;;;;22.21;35.20;93881.66;10504510;28;2156;-72
2024/02/08 21:31:56;;;;;;;;;;;;;;;22.11;35.23;93884.72;10501855;28;2130;-74
2024/02/08 21:36:56;;;;;;;;;;;;;;;21.95;33.74;93912.06;10515585;28;2091;-69
2024/02/08 21:41:56;;;;;;;;;;;;;;;21.49;32.96;93905.16;10499091;28;2000;-70
2024/02/08 21:46:57;;;;;;;;;;;;;;;21.16;34.99;93917.47;10481345;28;2025;-73
2024/02/08 21:51:57;;;;;;;;;;;;;;;21.38;37.02;93898.72;10482998;28;2438;-74
2024/02/08 21:56:59;;;;;;;;;;;;;;;21.56;38.87;93905.38;10500991;28;2118;-74
2024/02/08 22:02:00;;;;;;;;;;;;;;;21.62;38.61;93899.59;10500139;28;2104;-74
2024/02/08 22:07:00;;;;;;;;;;;;;;;21.66;39.15;93905.75;10502602;28;2068;-74
2024/02/08 22:12:03;;;;;;;;;;;;;;;21.63;38.16;93905.63;10502350;28;2231;-74
2024/02/08 22:17:08;;;;;;;;;;;;;;;21.57;40.98;93901.66;10502359;28;2074;-73
2024/02/08 22:22:08;;;;;;;;;;;;;;;21.66;37.49;93887.28;10472315;28;2106;-73
2024/02/08 22:27:09;;;;;;;;;;;;;;;21.62;37.47;93896.16;10500324;28;2265;-73
2024/02/08 22:32:11;;;;;;;;;;;;;;;21.54;38.49;93897.03;10500714;28;2114;-74
2024/02/08 22:37:11;;;;;;;;;;;;;;;21.49;38.39;93903.28;10495915;28;2102;-73
2024/02/08 22:42:12;;;;;;;;;;;;;;;21.49;38.39;93905.16;10500329;28;2230;-74
2024/02/08 22:47:13;;;;;;;;;;;;;;;21.49;38.37;93910.41;10501372;28;2588;-74
2024/02/08 22:52:13;;;;;;;;;;;;;;;21.47;38.19;93913.38;10502551;28;1914;-74
2024/02/08 22:57:13;;;;;;;;;;;;;;;21.46;38.25;93903.13;10505166;28;2079;-73
2024/02/08 23:02:16;;;;;;;;;;;;;;;21.45;38.85;93901.63;10510330;28;2079;-73
2024/02/08 23:07:18;;;;;;;;;;;;;;;21.44;38.30;93897.41;10512387;28;2163;-73
2024/02/08 23:12:18;;;;;;;;;;;;;;;21.43;38.58;93885.34;10490291;28;2024;-74
2024/02/08 23:17:20;;;;;;;;;;;;;;;21.41;38.56;93882.25;10506475;28;2058;-73
2024/02/08 23:22:21;;;;;;;;;;;;;;;21.39;38.41;93885.19;10493258;28;2045;-72
2024/02/08 23:27:23;;;;;;;;;;;;;;;21.38;38.58;93885.53;10508808;28;2138;-75
2024/02/08 23:32:25;;;;;;;;;;;;;;;21.37;38.46;93878.72;10502088;28;2343;-73
2024/02/08 23:37:25;;;;;;;;;;;;;;;21.35;38.39;93884.31;10507706;28;2119;-73
2024/02/08 23:42:25;;;;;;;;;;;;;;;21.34;38.69;93887.28;10507690;28;2103;-73
2024/02/08 23:47:28;;;;;;;;;;;;;;;21.32;38.49;93878.91;10508134;28;2052;-73
2024/02/08 23:52:28;;;;;;;;;;;;;;;21.31;38.28;93877.38;10508970;28;2066;-72
2024/02/08 23:57:29;;;;;;;;;;;;;;;21.28;38.41;93876.16;10505189;28;2119;-73
